createdAt,value
2023-01-30T00:35:31.173Z,758.00
2023-01-30T00:36:31.140Z,755.00
2023-01-30T00:37:31.189Z,754.00
2023-01-30T00:39:31.268Z,756.00
2023-01-30T01:05:32.423Z,758.00
2023-01-30T01:06:32.550Z,756.00
2023-01-30T01:07:32.515Z,755.00
2023-01-30T01:08:32.572Z,752.00
2023-01-30T01:09:32.599Z,750.00
2023-01-30T01:10:32.663Z,750.00
2023-01-30T01:11:32.694Z,752.00
2023-01-30T01:12:32.751Z,751.00
2023-01-30T01:13:32.789Z,751.00
2023-01-30T01:14:32.916Z,752.00
2023-01-30T01:15:32.882Z,750.00
2023-01-30T01:16:32.961Z,750.00
2023-01-30T01:17:32.971Z,748.00
2023-01-30T01:18:32.999Z,746.00
2023-01-30T01:19:33.043Z,744.00
2023-01-30T01:20:33.104Z,745.00
2023-01-30T01:21:33.150Z,746.00
2023-01-30T01:22:33.274Z,745.00
2023-01-30T01:23:33.260Z,744.00
2023-01-30T01:24:33.276Z,743.00
2023-01-30T01:26:33.379Z,746.00
2023-01-30T01:27:33.413Z,748.00
2023-01-30T01:28:33.462Z,748.00
2023-01-30T01:29:33.571Z,745.00
2023-01-30T01:30:33.584Z,743.00
2023-01-30T01:31:33.669Z,742.00
2023-01-30T01:32:33.673Z,744.00
2023-01-30T01:33:33.733Z,743.00
2023-01-30T01:34:33.795Z,743.00
2023-01-30T01:35:33.839Z,742.00
2023-01-30T01:36:52.671Z,742.00
2023-01-30T01:38:33.882Z,741.00
2023-01-30T01:39:33.881Z,741.00
2023-01-30T01:40:33.895Z,741.00
2023-01-30T01:41:33.898Z,739.00
2023-01-30T01:42:33.896Z,739.00
2023-01-30T01:43:33.898Z,739.00
2023-01-30T01:44:33.908Z,739.00
2023-01-30T01:45:33.942Z,738.00
2023-01-30T01:46:33.906Z,740.00
2023-01-30T01:47:33.907Z,739.00
2023-01-30T01:48:33.937Z,740.00
2023-01-30T01:49:33.935Z,743.00
2023-01-30T01:50:33.987Z,740.00
2023-01-30T01:51:34.035Z,740.00
2023-01-30T01:52:34.087Z,738.00
2023-01-30T01:53:34.141Z,736.00
2023-01-30T01:54:34.192Z,737.00
2023-01-30T01:55:34.239Z,737.00
2023-01-30T01:56:34.353Z,738.00
2023-01-30T01:58:34.398Z,735.00
2023-01-30T01:59:34.439Z,739.00
2023-01-30T02:00:34.518Z,741.00
2023-01-30T02:01:34.558Z,741.00
2023-01-30T02:02:34.662Z,740.00
2023-01-30T02:03:34.652Z,741.00
2023-01-30T02:04:34.710Z,743.00
2023-01-30T02:05:34.735Z,741.00
2023-01-30T02:06:34.793Z,743.00
2023-01-30T02:07:34.842Z,740.00
2023-01-30T02:08:34.906Z,738.00
2023-01-30T02:09:34.943Z,732.00
2023-01-30T02:10:35.019Z,732.00
2023-01-30T02:11:35.059Z,732.00
2023-01-30T02:12:35.116Z,731.00
2023-01-30T02:13:35.169Z,732.00
2023-01-30T02:14:35.306Z,734.00
2023-01-30T02:15:35.275Z,736.00
2023-01-30T02:16:35.338Z,736.00
2023-01-30T02:17:35.439Z,735.00
2023-01-30T02:18:35.473Z,739.00
2023-01-30T02:19:35.517Z,738.00
2023-01-30T02:20:35.566Z,740.00
2023-01-30T02:21:35.612Z,738.00
2023-01-30T02:22:36.609Z,737.00
2023-01-30T02:23:35.703Z,737.00
2023-01-30T02:24:35.765Z,736.00
2023-01-30T02:25:35.832Z,737.00
2023-01-30T02:26:35.950Z,736.00
2023-01-30T02:27:35.927Z,736.00
2023-01-30T02:28:35.983Z,736.00
2023-01-30T02:29:36.050Z,738.00
2023-01-30T02:30:36.134Z,739.00
2023-01-30T02:31:36.214Z,739.00
2023-01-30T02:32:36.169Z,739.00
2023-01-30T02:33:36.213Z,738.00
2023-01-30T02:34:36.267Z,739.00
2023-01-30T02:35:36.301Z,740.00
2023-01-30T02:37:36.419Z,737.00
2023-01-30T02:38:36.448Z,738.00
2023-01-30T04:04:41.074Z,718.00
2023-01-30T04:05:41.122Z,716.00
2023-01-30T04:06:41.170Z,715.00
2023-01-30T04:07:41.274Z,714.00
2023-01-30T04:08:41.322Z,715.00
2023-01-30T04:09:41.641Z,715.00
2023-01-30T04:10:41.415Z,715.00
2023-01-30T04:11:41.491Z,714.00
2023-01-30T04:12:41.541Z,717.00
2023-01-30T04:13:42.145Z,715.00
2023-01-30T04:14:41.658Z,715.00
2023-01-30T04:15:41.719Z,716.00
2023-01-30T04:16:41.773Z,719.00
2023-01-30T04:17:41.831Z,721.00
2023-01-30T04:18:41.910Z,721.00
2023-01-30T04:19:41.975Z,723.00
2023-01-30T04:20:42.003Z,726.00
2023-01-30T04:21:42.720Z,725.00
2023-01-30T04:22:42.117Z,724.00
2023-01-30T04:23:42.266Z,723.00
2023-01-30T04:24:42.277Z,725.00
2023-01-30T04:25:42.320Z,724.00
2023-01-30T04:26:42.444Z,721.00
2023-01-30T04:27:42.461Z,720.00
2023-01-30T04:28:42.501Z,722.00
2023-01-30T04:29:42.577Z,723.00
2023-01-30T04:30:42.672Z,722.00
2023-01-30T04:31:42.781Z,721.00
2023-01-30T04:32:42.738Z,718.00
2023-01-30T04:33:42.813Z,716.00
2023-01-30T04:34:42.860Z,721.00
2023-01-30T04:35:42.924Z,722.00
2023-01-30T04:36:42.996Z,724.00
2023-01-30T04:37:43.051Z,724.00
2023-01-30T04:38:43.110Z,723.00
2023-01-30T04:39:43.173Z,721.00
2023-01-30T04:40:43.233Z,722.00
2023-01-30T04:41:43.296Z,720.00
2023-01-30T04:42:43.353Z,721.00
2023-01-30T04:43:43.466Z,721.00
2023-01-30T04:44:43.485Z,723.00
2023-01-30T04:45:43.538Z,721.00
2023-01-30T04:46:43.688Z,720.00
2023-01-30T04:47:43.683Z,723.00
2023-01-30T04:48:43.795Z,721.00
2023-01-30T04:49:43.763Z,720.00
2023-01-30T04:50:43.823Z,722.00
2023-01-30T04:51:43.873Z,722.00
2023-01-30T04:52:43.930Z,722.00
2023-01-30T04:53:44.009Z,723.00
2023-01-30T04:54:44.056Z,723.00
2023-01-30T04:55:44.119Z,722.00
2023-01-30T04:57:45.140Z,722.00
2023-01-30T04:58:44.303Z,721.00
2023-01-30T04:59:44.352Z,721.00
2023-01-30T05:00:44.542Z,722.00
2023-01-30T05:01:44.492Z,722.00
2023-01-30T05:02:44.537Z,722.00
2023-01-30T05:03:44.599Z,719.00
2023-01-30T05:04:44.823Z,718.00
2023-01-30T05:05:44.709Z,718.00
2023-01-30T05:06:44.840Z,721.00
2023-01-30T05:07:44.828Z,722.00
2023-01-30T05:08:46.866Z,720.00
2023-01-30T05:09:44.936Z,720.00
2023-01-30T05:10:44.993Z,719.00
2023-01-30T05:11:45.066Z,717.00
2023-01-30T05:12:45.133Z,717.00
2023-01-30T05:13:45.175Z,718.00
2023-01-30T05:14:45.262Z,716.00
2023-01-30T05:15:46.253Z,715.00
2023-01-30T05:16:45.256Z,714.00
2023-01-30T05:17:46.302Z,715.00
2023-01-30T05:18:45.287Z,714.00
2023-01-30T05:19:45.271Z,714.00
2023-01-30T05:20:45.319Z,715.00
2023-01-30T05:21:45.293Z,715.00
2023-01-30T05:22:45.306Z,713.00
2023-01-30T05:23:45.332Z,712.00
2023-01-30T05:24:45.323Z,711.00
2023-01-30T05:25:45.343Z,711.00
2023-01-30T05:26:45.446Z,708.00
2023-01-30T05:27:45.421Z,710.00
2023-01-30T05:28:45.473Z,709.00
2023-01-30T05:29:45.546Z,711.00
2023-01-30T05:30:47.323Z,711.00
2023-01-30T05:31:45.697Z,710.00
2023-01-30T05:32:45.744Z,710.00
2023-01-30T05:33:45.821Z,710.00
2023-01-30T05:34:45.898Z,710.00
2023-01-30T05:35:45.940Z,709.00
2023-01-30T05:36:46.653Z,711.00
2023-01-30T05:37:46.084Z,709.00
2023-01-30T05:38:46.153Z,708.00
2023-01-30T05:39:46.263Z,707.00
2023-01-30T05:40:47.162Z,706.00
2023-01-30T05:41:46.337Z,707.00
2023-01-30T05:42:47.154Z,710.00
2023-01-30T05:43:46.524Z,712.00
2023-01-30T05:44:46.517Z,713.00
2023-01-30T05:45:46.563Z,715.00
2023-01-30T05:46:46.704Z,715.00
2023-01-30T05:47:46.714Z,713.00
2023-01-30T05:48:46.877Z,714.00
2023-01-30T05:49:46.852Z,714.00
2023-01-30T05:50:46.928Z,714.00
2023-01-30T05:51:46.990Z,715.00
2023-01-30T05:52:47.060Z,714.00
2023-01-30T06:35:51.176Z,1010.00
2023-01-30T07:03:51.240Z,1935.00
2023-01-30T07:15:51.177Z,2271.00
2023-01-30T07:30:51.217Z,2532.00
2023-01-30T07:54:51.081Z,2470.00
2023-01-30T07:55:51.088Z,2468.00
2023-01-30T07:56:51.119Z,2463.00
2023-01-30T07:57:51.151Z,2454.00
2023-01-30T07:58:51.178Z,2453.00
2023-01-30T07:59:51.223Z,2454.00
2023-01-30T08:00:51.275Z,2450.00
2023-01-30T08:01:51.296Z,2443.00
2023-01-30T08:02:51.313Z,2437.00
2023-01-30T08:03:51.342Z,2433.00
2023-01-30T08:04:51.448Z,2431.00
2023-01-30T08:05:51.422Z,2428.00
2023-01-30T08:06:51.476Z,2424.00
2023-01-30T08:07:51.499Z,2422.00
2023-01-30T08:08:51.543Z,2417.00
2023-01-30T08:12:51.673Z,2410.00
2023-01-30T08:13:51.713Z,2412.00
2023-01-30T08:14:51.821Z,2410.00
2023-01-30T08:15:51.789Z,2410.00
2023-01-30T08:16:51.906Z,2407.00
2023-01-30T08:17:51.879Z,2405.00
2023-01-30T08:18:51.859Z,2402.00
2023-01-30T08:19:51.958Z,2404.00
2023-01-30T08:20:51.932Z,2382.00
2023-01-30T08:21:51.964Z,2377.00
2023-01-30T08:22:52.698Z,2365.00
2023-01-30T08:23:52.013Z,2374.00
2023-01-30T08:24:52.101Z,2370.00
2023-01-30T08:25:52.063Z,2360.00
2023-01-30T08:26:52.090Z,2366.00
2023-01-30T08:27:52.112Z,2370.00
2023-01-30T08:28:52.695Z,2368.00
2023-01-30T08:29:52.216Z,2373.00
2023-01-30T08:30:52.296Z,2375.00
2023-01-30T08:31:52.253Z,2381.00
2023-01-30T08:32:52.291Z,2394.00
2023-01-30T08:33:52.327Z,2399.00
2023-01-30T08:34:53.196Z,2399.00
2023-01-30T08:35:52.408Z,2393.00
2023-01-30T08:36:52.442Z,2391.00
2023-01-30T08:37:52.480Z,2386.00
2023-01-30T08:38:52.527Z,2381.00
2023-01-30T08:39:52.565Z,2380.00
2023-01-30T08:40:52.596Z,2381.00
2023-01-30T08:41:52.644Z,2383.00
2023-01-30T08:42:52.755Z,2382.00
2023-01-30T08:43:52.698Z,2381.00
2023-01-30T08:44:52.729Z,2378.00
2023-01-30T08:45:53.702Z,2375.00
2023-01-30T08:46:52.808Z,2375.00
2023-01-30T08:47:52.898Z,2373.00
2023-01-30T08:48:52.867Z,2370.00
2023-01-30T08:49:53.025Z,2368.00
2023-01-30T08:50:52.966Z,2365.00
2023-01-30T08:51:53.009Z,2359.00
2023-01-30T08:52:53.044Z,2355.00
2023-01-30T08:53:53.086Z,2347.00
2023-01-30T08:54:53.133Z,2340.00
2023-01-30T08:55:53.160Z,2336.00
2023-01-30T08:56:53.204Z,2338.00
2023-01-30T08:57:53.248Z,2342.00
2023-01-30T08:58:53.285Z,2339.00
2023-01-30T08:59:53.390Z,2337.00
2023-01-30T09:00:53.469Z,2338.00
2023-01-30T09:01:53.710Z,2338.00
2023-01-30T09:02:53.460Z,2339.00
2023-01-30T09:03:53.504Z,2333.00
2023-01-30T09:04:53.533Z,2331.00
2023-01-30T09:05:53.582Z,2325.00
2023-01-30T09:06:53.608Z,2324.00
2023-01-30T09:07:53.636Z,2323.00
2023-01-30T09:08:53.663Z,2324.00
2023-01-30T09:09:53.705Z,2321.00
2023-01-30T09:10:54.702Z,2319.00
2023-01-30T09:11:53.778Z,2316.00
2023-01-30T09:12:53.810Z,2308.00
2023-01-30T09:13:53.835Z,2298.00
2023-01-30T09:14:54.709Z,2290.00
2023-01-30T09:15:54.012Z,2285.00
2023-01-30T09:16:54.001Z,2280.00
2023-01-30T09:17:54.222Z,2283.00
2023-01-30T09:18:54.079Z,2299.00
2023-01-30T09:19:54.062Z,2307.00
2023-01-30T09:20:54.092Z,2322.00
2023-01-30T09:21:54.725Z,2318.00
2023-01-30T09:22:54.207Z,2323.00
2023-01-30T09:23:54.262Z,2325.00
2023-01-30T09:24:54.203Z,2332.00
2023-01-30T09:25:54.232Z,2338.00
2023-01-30T09:26:54.251Z,2331.00
2023-01-30T09:27:54.293Z,2330.00
2023-01-30T09:28:54.351Z,2325.00
2023-01-30T09:29:54.367Z,2322.00
2023-01-30T09:30:54.422Z,2321.00
2023-01-30T09:31:54.418Z,2321.00
2023-01-30T09:32:54.467Z,2319.00
2023-01-30T09:33:54.500Z,2313.00
2023-01-30T09:34:54.711Z,2309.00
2023-01-30T09:35:55.221Z,2307.00
2023-01-30T09:37:54.739Z,2302.00
2023-01-30T09:38:54.780Z,2299.00
2023-01-30T09:39:54.826Z,2300.00
2023-01-30T09:41:54.961Z,2294.00
2023-01-30T09:42:54.971Z,2291.00
2023-01-30T10:25:56.705Z,2507.00
2023-01-30T10:26:56.701Z,2593.00
2023-01-30T10:27:56.744Z,2635.00
2023-01-30T10:29:06.672Z,2669.00
2023-01-30T10:29:57.657Z,2703.00
2023-01-30T10:30:56.772Z,2735.00
2023-01-30T10:31:56.641Z,2762.00
2023-01-30T10:32:56.633Z,2792.00
2023-01-30T10:33:56.696Z,2836.00
2023-01-30T10:34:56.615Z,2863.00
2023-01-30T10:35:56.588Z,2915.00
2023-01-30T10:36:56.596Z,2946.00
2023-01-30T10:38:56.548Z,2994.00
2023-01-30T10:39:56.549Z,3017.00
2023-01-30T10:40:56.516Z,3051.00
2023-01-30T10:41:56.502Z,3075.00
2023-01-30T10:42:56.496Z,3101.00
2023-01-30T10:43:56.469Z,3133.00
2023-01-30T10:44:56.517Z,3162.00
2023-01-30T10:45:56.435Z,3205.00
2023-01-30T10:46:56.496Z,3227.00
2023-01-30T10:47:56.437Z,3259.00
2023-01-30T10:48:56.386Z,3291.00
2023-01-30T10:49:56.353Z,3335.00
2023-01-30T10:50:56.321Z,3370.00
2023-01-30T10:51:56.325Z,3396.00
2023-01-30T10:52:56.335Z,3418.00
2023-01-30T10:53:56.381Z,3445.00
2023-01-30T10:54:56.420Z,3498.00
2023-01-30T10:55:56.458Z,3522.00
2023-01-30T10:56:57.218Z,3537.00
2023-01-30T10:57:56.518Z,3556.00
2023-01-30T10:58:56.605Z,3574.00
2023-01-30T10:59:56.588Z,3598.00
2023-01-30T11:00:56.629Z,3626.00
2023-01-30T11:01:56.665Z,3647.00
2023-01-30T11:02:56.723Z,3663.00
2023-01-30T11:03:56.753Z,3706.00
2023-01-30T11:04:56.793Z,3736.00
2023-01-30T11:05:56.786Z,3764.00
2023-01-30T11:06:56.799Z,3801.00
2023-01-30T11:07:56.816Z,3823.00
2023-01-30T11:08:56.831Z,3854.00
2023-01-30T11:09:56.842Z,3882.00
2023-01-30T11:10:56.859Z,3905.00
2023-01-30T11:11:56.893Z,4011.00
2023-01-30T11:12:56.901Z,3873.00
2023-01-30T11:13:56.909Z,3839.00
2023-01-30T11:14:56.906Z,3797.00
2023-01-30T11:15:56.934Z,3821.00
2023-01-30T11:16:56.986Z,3832.00
2023-01-30T11:18:01.390Z,3836.00
2023-01-30T11:19:57.832Z,3837.00
2023-01-30T11:20:56.784Z,3841.00
2023-01-30T11:21:56.760Z,3848.00
2023-01-30T11:22:56.713Z,3856.00
2023-01-30T11:23:56.678Z,3859.00
2023-01-30T11:24:56.650Z,3865.00
2023-01-30T11:26:09.373Z,3867.00
2023-01-30T11:26:57.720Z,3864.00
2023-01-30T11:27:56.563Z,3858.00
2023-01-30T11:28:56.638Z,3852.00
2023-01-30T11:29:56.481Z,3849.00
2023-01-30T11:30:56.500Z,3844.00
2023-01-30T11:31:56.513Z,3844.00
2023-01-30T11:32:56.431Z,3843.00
2023-01-30T11:33:56.353Z,3847.00
2023-01-30T11:34:56.325Z,3842.00
2023-01-30T11:35:56.293Z,3836.00
2023-01-30T11:36:56.259Z,3833.00
2023-01-30T11:37:56.219Z,3832.00
2023-01-30T11:38:56.186Z,3832.00
2023-01-30T11:39:56.163Z,3826.00
2023-01-30T11:40:56.167Z,3824.00
2023-01-30T11:41:56.181Z,3818.00
2023-01-30T11:42:56.200Z,3820.00
2023-01-30T11:43:56.216Z,3822.00
2023-01-30T11:45:06.459Z,3815.00
2023-01-30T11:45:57.230Z,3806.00
2023-01-30T11:46:56.150Z,3801.00
2023-01-30T11:47:58.888Z,3797.00
2023-01-30T11:49:04.180Z,3801.00
2023-01-30T11:50:04.705Z,3798.00
2023-01-30T11:50:57.012Z,3798.00
2023-01-30T11:51:55.981Z,3795.00
2023-01-30T11:52:55.945Z,3791.00
2023-01-30T11:53:55.923Z,3783.00
2023-01-30T11:54:55.905Z,3775.00
2023-01-30T11:56:03.793Z,3777.00
2023-01-30T11:56:56.840Z,3776.00
2023-01-30T11:57:55.805Z,3772.00
2023-01-30T11:58:55.778Z,3767.00
2023-01-30T12:30:50.552Z,3621.00
2023-01-30T12:32:50.652Z,3611.00
2023-01-30T12:50:51.477Z,3452.00
2023-01-30T12:51:51.488Z,3493.00
2023-01-30T12:52:51.531Z,3514.00
2023-01-30T12:53:51.587Z,3516.00
2023-01-30T12:54:51.632Z,3506.00
2023-01-30T12:55:51.657Z,3507.00
2023-01-30T12:56:51.663Z,3504.00
2023-01-30T12:57:51.670Z,3494.00
2023-01-30T12:58:51.667Z,3490.00
2023-01-30T12:59:51.700Z,3488.00
2023-01-30T13:00:51.693Z,3474.00
2023-01-30T13:01:51.729Z,3473.00
2023-01-30T13:02:51.835Z,3461.00
2023-01-30T13:03:51.702Z,3439.00
2023-01-30T13:05:02.229Z,3441.00
2023-01-30T13:05:52.691Z,3440.00
2023-01-30T13:06:51.690Z,3428.00
2023-01-30T13:07:51.681Z,3423.00
2023-01-30T13:08:51.669Z,3428.00
2023-01-30T13:09:51.674Z,3429.00
2023-01-30T13:10:51.673Z,3437.00
2023-01-30T13:11:51.664Z,3429.00
2023-01-30T13:12:51.664Z,3408.00
2023-01-30T13:13:51.684Z,3401.00
2023-01-30T13:14:51.677Z,3394.00
2023-01-30T13:15:53.184Z,3406.00
2023-01-30T13:16:51.645Z,3410.00
2023-01-30T13:17:51.657Z,3407.00
2023-01-30T13:18:51.639Z,3387.00
2023-01-30T13:19:51.651Z,3385.00
2023-01-30T13:20:51.637Z,3381.00
2023-01-30T13:21:51.630Z,3379.00
2023-01-30T13:22:51.617Z,3367.00
2023-01-30T13:23:51.629Z,3362.00
2023-01-30T13:24:51.633Z,3361.00
2023-01-30T13:25:51.624Z,3347.00
2023-01-30T13:26:51.661Z,3341.00
2023-01-30T13:27:51.633Z,3314.00
2023-01-30T13:28:51.635Z,3313.00
2023-01-30T13:29:51.639Z,3314.00
2023-01-30T13:30:51.716Z,3313.00
2023-01-30T13:31:51.840Z,3294.00
2023-01-30T13:32:51.699Z,3301.00
2023-01-30T13:33:51.719Z,3295.00
2023-01-30T13:34:51.740Z,3281.00
2023-01-30T13:35:51.755Z,3258.00
2023-01-30T13:36:51.795Z,3276.00
2023-01-30T13:37:51.833Z,3283.00
2023-01-30T13:38:51.857Z,3241.00
2023-01-30T13:39:52.540Z,3239.00
2023-01-30T13:40:51.930Z,3246.00
2023-01-30T13:41:51.970Z,3262.00
2023-01-30T13:42:52.622Z,3260.00
2023-01-30T13:43:52.032Z,3250.00
2023-01-30T13:44:52.082Z,3225.00
2023-01-30T13:45:52.126Z,3229.00
2023-01-30T13:46:52.208Z,3224.00
2023-01-30T13:47:52.201Z,3226.00
2023-01-30T13:48:52.246Z,3224.00
2023-01-30T13:49:52.293Z,3219.00
2023-01-30T13:50:52.337Z,3220.00
2023-01-30T13:51:52.380Z,3212.00
2023-01-30T13:52:52.435Z,3208.00
2023-01-30T13:53:52.480Z,3181.00
2023-01-30T13:54:52.552Z,3173.00
2023-01-30T13:55:52.552Z,3167.00
2023-01-30T13:56:52.626Z,3176.00
2023-01-30T13:57:52.655Z,3183.00
2023-01-30T13:58:52.705Z,3178.00
2023-01-30T13:59:52.754Z,3122.00
2023-01-30T14:00:52.895Z,3136.00
2023-01-30T14:01:52.859Z,3127.00
2023-01-30T14:02:52.898Z,3131.00
2023-01-30T14:03:52.954Z,3135.00
2023-01-30T14:04:53.768Z,3133.00
2023-01-30T14:05:53.022Z,3130.00
2023-01-30T14:06:53.082Z,3121.00
2023-01-30T14:07:53.127Z,3115.00
2023-01-30T14:08:53.163Z,3088.00
2023-01-30T14:09:53.210Z,3087.00
2023-01-30T14:10:54.210Z,3091.00
2023-01-30T14:11:53.299Z,3092.00
2023-01-30T14:12:53.346Z,3098.00
2023-01-30T14:13:53.387Z,3100.00
2023-01-30T14:14:53.447Z,3090.00
2023-01-30T14:15:53.566Z,3069.00
2023-01-30T14:16:53.523Z,3067.00
2023-01-30T14:17:53.742Z,3059.00
2023-01-30T14:18:53.601Z,3070.00
2023-01-30T14:19:53.625Z,3068.00
2023-01-30T14:20:53.667Z,3065.00
2023-01-30T14:21:53.719Z,3063.00
2023-01-30T14:22:53.769Z,3052.00
2023-01-30T14:23:53.756Z,3058.00
2023-01-30T14:24:53.770Z,3056.00
2023-01-30T14:25:53.773Z,3050.00
2023-01-30T14:26:53.871Z,3044.00
2023-01-30T14:27:53.772Z,3032.00
2023-01-30T14:28:53.761Z,3025.00
2023-01-30T14:29:53.769Z,3017.00
2023-01-30T14:30:53.778Z,3025.00
2023-01-30T14:31:54.951Z,2974.00
2023-01-30T14:32:53.796Z,2975.00
2023-01-30T14:33:53.786Z,2993.00
2023-01-30T14:34:53.893Z,2993.00
2023-01-30T14:35:53.788Z,2983.00
2023-01-30T14:36:53.800Z,2994.00
2023-01-30T14:37:53.804Z,2998.00
2023-01-30T14:38:53.793Z,2997.00
2023-01-30T14:39:53.829Z,2968.00
2023-01-30T14:40:53.869Z,2961.00
2023-01-30T14:41:53.917Z,2971.00
2023-01-30T14:42:53.947Z,2981.00
2023-01-30T14:43:54.458Z,2978.00
2023-01-30T14:44:54.037Z,2983.00
2023-01-30T14:45:54.040Z,2981.00
2023-01-30T14:46:56.949Z,2977.00
2023-01-30T14:47:54.120Z,2968.00
2023-01-30T14:48:54.053Z,2970.00
2023-01-30T14:49:54.034Z,2963.00
2023-01-30T14:50:54.059Z,2953.00
2023-01-30T14:51:54.035Z,2954.00
2023-01-30T14:52:54.040Z,2943.00
2023-01-30T14:53:54.032Z,2930.00
2023-01-30T14:54:54.031Z,2929.00
2023-01-30T14:55:54.032Z,2938.00
2023-01-30T14:56:54.040Z,2936.00
2023-01-30T14:57:54.024Z,2935.00
2023-01-30T14:58:54.476Z,2915.00
2023-01-30T15:00:12.169Z,2914.00
2023-01-30T15:00:55.037Z,2916.00
2023-01-30T15:01:54.085Z,2911.00
2023-01-30T15:02:54.010Z,2908.00
2023-01-30T15:03:54.070Z,2895.00
2023-01-30T15:04:54.061Z,2884.00
2023-01-30T15:05:54.032Z,2879.00
2023-01-30T15:06:54.033Z,2875.00
2023-01-30T15:07:54.038Z,2875.00
2023-01-30T15:08:54.055Z,2879.00
2023-01-30T15:09:54.049Z,2816.00
2023-01-30T15:10:54.051Z,2859.00
2023-01-30T15:11:54.024Z,2872.00
2023-01-30T15:12:54.003Z,2871.00
2023-01-30T15:13:54.003Z,2868.00
2023-01-30T15:14:55.004Z,2858.00
2023-01-30T15:15:54.019Z,2858.00
2023-01-30T15:16:53.985Z,2854.00
2023-01-30T15:18:07.101Z,2848.00
2023-01-30T15:18:54.971Z,2850.00
2023-01-30T15:19:53.964Z,2853.00
2023-01-30T15:20:53.972Z,2854.00
2023-01-30T15:21:53.953Z,2853.00
2023-01-30T15:22:53.976Z,2850.00
2023-01-30T15:23:53.993Z,2842.00
2023-01-30T15:24:53.964Z,2822.00
2023-01-30T15:25:53.963Z,2825.00
2023-01-30T15:26:54.051Z,2826.00
2023-01-30T15:27:53.963Z,2825.00
2023-01-30T15:28:53.965Z,2824.00
2023-01-30T15:29:53.969Z,2828.00
2023-01-30T15:30:54.010Z,2827.00
2023-01-30T15:31:54.038Z,2825.00
2023-01-30T15:32:53.954Z,2822.00
2023-01-30T15:33:53.956Z,2819.00
2023-01-30T15:34:53.948Z,2810.00
2023-01-30T15:35:53.951Z,2802.00
2023-01-30T15:36:53.944Z,2792.00
2023-01-30T15:37:53.937Z,2804.00
2023-01-30T15:39:53.937Z,2809.00
2023-01-30T15:40:53.929Z,2803.00
2023-01-30T15:41:53.905Z,2800.00
2023-01-30T15:42:53.996Z,2793.00
2023-01-30T15:43:53.890Z,2794.00
2023-01-30T15:44:53.891Z,2799.00
2023-01-30T15:45:53.916Z,2795.00
2023-01-30T15:46:53.872Z,2794.00
2023-01-30T15:47:53.878Z,2791.00
2023-01-30T16:21:01.682Z,2713.00
2023-01-30T17:38:54.642Z,2451.00
2023-01-30T17:40:54.656Z,2437.00
2023-01-30T17:52:54.508Z,2433.00
2023-01-30T17:54:54.493Z,2430.00
2023-01-30T17:55:54.475Z,2430.00
2023-01-30T17:56:54.466Z,2429.00
2023-01-30T17:57:54.453Z,2431.00
2023-01-30T17:58:54.440Z,2433.00
2023-01-30T17:59:54.423Z,2429.00
2023-01-30T18:00:54.411Z,2429.00
2023-01-30T18:01:54.424Z,2429.00
2023-01-30T18:02:54.424Z,2429.00
2023-01-30T18:03:54.387Z,2424.00
2023-01-30T18:04:54.381Z,2427.00
2023-01-30T18:05:54.360Z,2427.00
2023-01-30T18:06:54.394Z,2434.00
2023-01-30T18:07:54.352Z,2428.00
2023-01-30T18:08:54.346Z,2424.00
2023-01-30T18:09:54.338Z,2421.00
2023-01-30T18:10:54.325Z,2419.00
2023-01-30T18:11:54.326Z,2421.00
2023-01-30T18:12:54.331Z,2420.00
2023-01-30T18:13:54.348Z,2418.00
2023-01-30T18:14:54.374Z,2416.00
2023-01-30T18:15:54.377Z,2417.00
2023-01-30T18:16:54.388Z,2412.00
2023-01-30T18:17:54.394Z,2411.00
2023-01-30T18:18:54.404Z,2404.00
2023-01-30T18:19:54.426Z,2393.00
2023-01-30T18:20:54.434Z,2397.00
2023-01-30T18:21:54.455Z,2396.00
2023-01-30T18:22:54.461Z,2398.00
2023-01-30T18:23:54.477Z,2402.00
2023-01-30T18:24:54.488Z,2400.00
2023-01-30T18:25:54.496Z,2400.00
2023-01-30T18:26:54.517Z,2398.00
2023-01-30T18:27:54.529Z,2397.00
2023-01-30T18:54:54.841Z,2356.00
2023-01-30T18:55:54.843Z,2358.00
2023-01-30T18:56:54.856Z,2357.00
2023-01-30T18:57:54.883Z,2358.00
2023-01-30T18:58:54.869Z,2358.00
2023-01-30T18:59:54.893Z,2358.00
2023-01-30T19:00:54.892Z,2359.00
2023-01-30T19:01:54.903Z,2359.00
2023-01-30T19:02:54.980Z,2357.00
2023-01-30T19:03:54.902Z,2357.00
2023-01-30T19:04:54.923Z,2357.00
2023-01-30T19:05:54.915Z,2356.00
2023-01-30T19:06:54.928Z,2358.00
2023-01-30T19:07:54.931Z,2345.00
2023-01-30T19:08:54.929Z,2347.00
2023-01-30T19:09:54.955Z,2346.00
2023-01-30T19:10:54.943Z,2348.00
2023-01-30T19:11:54.969Z,2349.00
2023-01-30T19:12:54.976Z,2346.00
2023-01-30T19:13:54.974Z,2346.00
2023-01-30T19:14:54.991Z,2349.00
2023-01-30T19:34:55.086Z,2304.00
2023-01-30T19:35:55.067Z,2304.00
2023-01-30T19:36:55.081Z,2306.00
2023-01-30T19:37:55.104Z,2311.00
2023-01-30T19:38:55.121Z,2310.00
2023-01-30T19:39:55.115Z,2306.00
2023-01-30T19:40:55.112Z,2305.00
2023-01-30T19:41:55.110Z,2300.00
2023-01-30T19:42:59.576Z,2304.00
2023-01-30T19:44:55.114Z,2304.00
2023-01-30T19:45:55.093Z,2301.00
2023-01-30T19:46:55.081Z,2303.00
2023-01-30T19:47:55.072Z,2301.00
2023-01-30T19:48:55.070Z,2299.00
2023-01-30T19:49:55.073Z,2300.00
2023-01-30T19:50:55.039Z,2297.00
2023-01-30T19:51:55.026Z,2293.00
2023-01-30T19:52:55.013Z,2295.00
2023-01-30T19:53:55.009Z,2294.00
2023-01-30T19:54:55.011Z,2292.00
2023-01-30T19:55:54.995Z,2294.00
2023-01-30T19:56:54.988Z,2291.00
2023-01-30T19:58:55.120Z,2288.00
2023-01-30T19:59:54.949Z,2287.00
2023-01-30T20:00:54.925Z,2284.00
2023-01-30T20:01:54.994Z,2282.00
2023-01-30T20:02:54.901Z,2283.00
2023-01-30T20:03:54.888Z,2281.00
2023-01-30T20:04:54.870Z,2276.00
2023-01-30T20:05:55.308Z,2273.00
2023-01-30T20:06:54.847Z,2273.00
2023-01-30T20:07:54.829Z,2272.00
2023-01-30T20:08:54.822Z,2274.00
2023-01-30T20:09:54.810Z,2273.00
2023-01-30T20:10:54.780Z,2270.00
2023-01-30T20:12:54.764Z,2269.00
2023-01-30T20:13:54.743Z,2268.00
2023-01-30T20:14:54.731Z,2268.00
2023-01-30T20:15:54.863Z,2263.00
2023-01-30T20:16:54.713Z,2264.00
2023-01-30T20:17:54.702Z,2263.00
2023-01-30T20:18:54.696Z,2260.00
2023-01-30T20:19:54.670Z,2254.00
2023-01-30T20:20:54.675Z,2251.00
2023-01-30T20:21:54.668Z,2248.00
2023-01-30T20:22:54.643Z,2248.00
2023-01-30T20:23:54.651Z,2242.00
2023-01-30T20:24:54.616Z,2241.00
2023-01-30T20:25:54.602Z,2240.00
2023-01-30T20:26:54.650Z,2238.00
2023-01-30T20:27:54.578Z,2236.00
2023-01-30T20:28:54.585Z,2235.00
2023-01-30T20:29:54.564Z,2233.00
2023-01-30T20:30:54.596Z,2235.00
2023-01-30T20:31:54.615Z,2234.00
2023-01-30T20:32:54.581Z,2233.00
2023-01-30T20:33:54.574Z,2234.00
2023-01-30T20:34:54.575Z,2234.00
2023-01-30T20:35:54.567Z,2236.00
2023-01-30T20:36:54.603Z,2231.00
2023-01-30T20:37:54.580Z,2227.00
2023-01-30T20:38:54.579Z,2230.00
2023-01-30T20:39:54.599Z,2228.00
2023-01-30T20:40:54.601Z,2226.00
2023-01-30T20:41:54.605Z,2222.00
2023-01-30T20:42:54.615Z,2225.00
2023-01-30T20:43:54.632Z,2221.00
2023-01-30T20:44:54.634Z,2217.00
2023-01-30T20:45:54.659Z,2215.00
2023-01-30T20:46:54.699Z,2213.00
2023-01-30T20:47:54.654Z,2206.00
2023-01-30T20:48:54.998Z,2203.00
2023-01-30T20:49:54.647Z,2203.00
2023-01-30T20:50:54.641Z,2201.00
2023-01-30T20:51:54.660Z,2204.00
2023-01-30T20:52:54.654Z,2203.00
2023-01-30T20:53:54.668Z,2200.00
2023-01-30T20:54:54.654Z,2199.00
2023-01-30T20:55:54.662Z,2201.00
2023-01-30T20:56:54.699Z,2203.00
2023-01-30T20:57:54.683Z,2201.00
2023-01-30T20:58:54.678Z,2195.00
2023-01-30T20:59:54.670Z,2193.00
2023-01-30T21:00:54.697Z,2193.00
2023-01-30T21:01:54.691Z,2191.00
2023-01-30T21:02:54.698Z,2186.00
2023-01-30T21:03:54.739Z,2184.00
2023-01-30T21:04:54.730Z,2185.00
2023-01-30T21:05:54.731Z,2189.00
2023-01-30T21:06:54.760Z,2189.00
2023-01-30T21:07:54.735Z,2187.00
2023-01-30T21:08:54.748Z,2184.00